createdAt,value
2018-11-25T00:00:48.082Z,6.30
2018-11-25T00:01:44.911Z,6.30
2018-11-25T00:05:53.079Z,6.18
2018-11-25T00:16:33.034Z,6.14
2018-11-25T00:17:17.713Z,6.06
2018-11-25T00:18:31.648Z,6.11
2018-11-25T00:19:40.626Z,6.04
2018-11-25T00:22:17.898Z,6.14
2018-11-25T00:26:07.010Z,6.26
2018-11-25T00:27:13.502Z,6.21
2018-11-25T00:28:00.955Z,6.21
2018-11-25T00:29:35.967Z,6.21
2018-11-25T00:30:21.464Z,6.36
2018-11-25T00:33:12.034Z,6.25
2018-11-25T00:33:41.593Z,6.30
2018-11-25T00:36:17.139Z,6.38
2018-11-25T00:37:04.505Z,6.50
2018-11-25T00:53:57.910Z,6.47
2018-11-25T00:56:06.071Z,6.58
2018-11-25T00:58:51.616Z,6.59
2018-11-25T01:00:04.632Z,6.61
2018-11-25T01:02:22.875Z,6.69
2018-11-25T01:03:16.864Z,6.63
2018-11-25T01:05:43.756Z,6.66
2018-11-25T01:08:20.749Z,6.69
2018-11-25T01:09:19.803Z,6.58
2018-11-25T01:10:15.734Z,6.63
2018-11-25T01:11:15.234Z,6.62
2018-11-25T01:13:55.564Z,6.77
2018-11-25T01:16:42.777Z,6.80
2018-11-25T01:19:01.816Z,6.87
2018-11-25T01:19:52.748Z,6.80
2018-11-25T01:21:23.308Z,6.80
2018-11-25T01:22:02.309Z,6.84
2018-11-25T01:22:53.336Z,6.86
2018-11-25T01:25:29.411Z,6.89
2018-11-25T01:26:25.241Z,6.80
2018-11-25T01:29:23.965Z,6.58
2018-11-25T01:32:01.360Z,6.47
2018-11-25T01:33:05.306Z,6.41
2018-11-25T01:33:33.382Z,6.46
2018-11-25T01:34:53.051Z,6.33
2018-11-25T01:35:51.018Z,6.43
2018-11-25T01:36:34.933Z,6.33
2018-11-25T01:37:30.937Z,6.25
2018-11-25T01:38:29.449Z,6.29
2018-11-25T01:39:32.406Z,6.32
2018-11-25T01:42:08.397Z,6.33
2018-11-25T01:43:09.958Z,6.21
2018-11-25T01:44:14.695Z,6.25
2018-11-25T01:47:00.878Z,6.36
2018-11-25T01:47:46.839Z,6.33
2018-11-25T01:49:01.288Z,6.29
2018-11-25T01:49:44.262Z,6.30
2018-11-25T01:50:37.882Z,6.43
2018-11-25T01:51:40.758Z,6.43
2018-11-25T01:54:18.101Z,6.28
2018-11-25T02:03:38.145Z,6.33
2018-11-25T02:04:38.184Z,6.43
2018-11-25T02:05:33.684Z,6.46
2018-11-25T02:06:52.327Z,6.43
2018-11-25T02:07:36.752Z,6.47
2018-11-25T02:08:34.198Z,6.43
2018-11-25T02:09:53.176Z,6.43
2018-11-25T02:10:55.616Z,6.41
2018-11-25T02:13:46.250Z,6.35
2018-11-25T02:14:06.573Z,6.33
2018-11-25T02:15:06.416Z,6.38
2018-11-25T02:16:06.897Z,6.40
2018-11-25T02:17:13.286Z,6.44
2018-11-25T02:26:20.053Z,6.30
2018-11-25T02:27:18.506Z,6.43
2018-11-25T02:27:57.545Z,6.35
2018-11-25T02:29:17.546Z,6.43
2018-11-25T02:32:00.751Z,6.36
2018-11-25T02:34:04.785Z,6.46
2018-11-25T02:35:09.285Z,6.36
2018-11-25T02:35:59.799Z,6.26
2018-11-25T02:38:42.624Z,6.16
2018-11-25T02:40:06.177Z,6.25
2018-11-25T02:42:11.284Z,6.30
2018-11-25T02:43:06.256Z,6.29
2018-11-25T02:44:25.350Z,6.35
2018-11-25T02:49:43.964Z,6.30
2018-11-25T02:51:05.467Z,6.30
2018-11-25T02:52:01.034Z,6.32
2018-11-25T02:52:39.141Z,6.30
2018-11-25T02:54:01.426Z,6.28
2018-11-25T02:55:03.036Z,6.35
2018-11-25T02:56:07.473Z,6.30
2018-11-25T02:56:46.471Z,6.40
2018-11-25T02:58:03.636Z,6.22
2018-11-25T02:58:43.420Z,6.35
2018-11-25T02:59:39.688Z,6.44
2018-11-25T03:00:41.438Z,6.36
2018-11-25T03:01:41.971Z,6.36
2018-11-25T03:08:02.472Z,6.33
2018-11-25T03:14:02.874Z,6.38
2018-11-25T03:14:43.402Z,6.33
2018-11-25T03:15:31.855Z,6.33
2018-11-25T03:16:36.867Z,6.36
2018-11-25T03:17:14.881Z,6.33
2018-11-25T03:18:31.338Z,6.40
2018-11-25T03:20:46.371Z,6.40
2018-11-25T03:22:08.791Z,6.46
2018-11-25T03:23:02.790Z,6.41
2018-11-25T03:24:10.883Z,6.44
2018-11-25T03:25:03.311Z,6.36
2018-11-25T03:29:17.076Z,6.29
2018-11-25T03:29:47.987Z,6.32
2018-11-25T03:30:52.004Z,6.35
2018-11-25T03:31:47.046Z,6.35
2018-11-25T03:32:47.457Z,6.26
2018-11-25T03:33:50.944Z,6.40
2018-11-25T03:35:01.502Z,6.35
2018-11-25T03:37:24.143Z,6.22
2018-11-25T03:40:09.933Z,6.40
2018-11-25T03:42:48.254Z,6.35
2018-11-25T03:46:38.430Z,6.26
2018-11-25T03:47:51.571Z,6.26
2018-11-25T03:52:14.110Z,6.33
2018-11-25T03:53:01.587Z,6.18
2018-11-25T03:59:49.440Z,6.35
2018-11-25T04:01:14.250Z,6.21
2018-11-25T04:03:30.493Z,6.21
2018-11-25T04:04:15.257Z,6.33
2018-11-25T04:05:16.962Z,6.33
2018-11-25T04:06:27.021Z,6.32
2018-11-25T04:07:17.834Z,6.32
2018-11-25T04:08:36.572Z,6.29
2018-11-25T04:09:51.074Z,6.38
2018-11-25T04:10:16.319Z,6.22
2018-11-25T04:11:36.558Z,6.28
2018-11-25T04:12:18.018Z,6.33
2018-11-25T04:13:37.873Z,6.32
2018-11-25T04:16:00.698Z,6.29
2018-11-25T04:16:51.677Z,6.35
2018-11-25T04:17:54.215Z,6.32
2018-11-25T04:19:24.741Z,6.47
2018-11-25T04:19:58.703Z,6.40
2018-11-25T04:21:03.699Z,6.38
2018-11-25T04:21:50.146Z,6.46
2018-11-25T04:22:51.173Z,6.41
2018-11-25T04:23:48.479Z,6.41
2018-11-25T04:24:56.659Z,6.46
2018-11-25T04:25:50.691Z,6.29
2018-11-25T04:26:51.694Z,6.25
2018-11-25T04:27:49.023Z,6.18
2018-11-25T04:28:50.160Z,6.22
2018-11-25T04:30:10.378Z,6.06
2018-11-25T04:30:55.193Z,6.13
2018-11-25T04:31:49.767Z,6.13
2018-11-25T04:32:54.658Z,6.10
2018-11-25T04:33:53.197Z,6.09
2018-11-25T04:34:51.146Z,6.22
2018-11-25T04:35:54.198Z,6.29
2018-11-25T04:39:05.652Z,6.22
2018-11-25T04:46:07.015Z,6.43
2018-11-25T04:47:36.851Z,6.40
2018-11-25T04:48:19.653Z,6.46
2018-11-25T04:52:16.573Z,6.40
2018-11-25T04:53:08.650Z,6.29
2018-11-25T04:54:23.601Z,6.40
2018-11-25T04:56:43.160Z,6.41
2018-11-25T04:58:16.700Z,6.48
2018-11-25T04:58:43.376Z,6.44
2018-11-25T04:59:48.678Z,6.35
2018-11-25T05:00:44.521Z,6.54
2018-11-25T05:01:48.140Z,6.40
2018-11-25T05:04:16.607Z,6.44
2018-11-25T05:05:42.397Z,6.59
2018-11-25T05:06:35.837Z,6.47
2018-11-25T05:07:17.814Z,6.61
2018-11-25T05:08:17.306Z,6.53
2018-11-25T05:09:39.318Z,6.48
2018-11-25T05:11:51.377Z,6.43
2018-11-25T05:12:49.529Z,6.21
2018-11-25T05:14:13.549Z,6.13
2018-11-25T05:15:12.049Z,6.11
2018-11-25T05:15:48.768Z,6.14
2018-11-25T05:16:49.049Z,6.13
2018-11-25T05:17:53.015Z,6.06
2018-11-25T05:19:05.020Z,6.07
2018-11-25T05:20:00.128Z,6.13
2018-11-25T05:20:52.021Z,6.16
2018-11-25T05:21:52.974Z,6.18
2018-11-25T05:23:18.482Z,6.07
2018-11-25T05:23:53.502Z,6.13
2018-11-25T05:27:03.086Z,6.18
2018-11-25T05:27:49.602Z,6.16
2018-11-25T05:32:04.317Z,6.18
2018-11-25T05:33:11.786Z,6.16
2018-11-25T05:33:50.532Z,5.98
2018-11-25T05:36:28.115Z,6.01
2018-11-25T05:37:21.527Z,5.95
2018-11-25T05:38:23.704Z,5.92
2018-11-25T05:39:50.418Z,6.01
2018-11-25T06:09:10.660Z,6.41
2018-11-25T06:17:43.517Z,6.50
2018-11-25T06:21:45.201Z,6.68
2018-11-25T06:23:17.205Z,6.66
2018-11-25T06:23:49.206Z,6.72
2018-11-25T06:35:58.524Z,6.54
2018-11-25T06:37:08.984Z,6.47
2018-11-25T06:44:03.056Z,6.25
2018-11-25T06:45:02.642Z,6.21
2018-11-25T06:45:59.987Z,6.18
2018-11-25T06:50:27.276Z,6.06
2018-11-25T06:51:04.386Z,6.11
2018-11-25T06:54:07.778Z,6.18
2018-11-25T06:56:09.565Z,6.21
2018-11-25T06:57:06.555Z,6.06
2018-11-25T06:58:08.588Z,6.06
2018-11-25T06:59:06.806Z,6.01
2018-11-25T07:00:14.595Z,6.00
2018-11-25T07:01:08.186Z,6.04
2018-11-25T07:02:11.089Z,6.06
2018-11-25T07:03:09.355Z,5.95
2018-11-25T07:04:14.578Z,5.95
2018-11-25T07:05:08.545Z,6.03
2018-11-25T07:06:08.156Z,6.01
2018-11-25T07:07:08.380Z,6.11
2018-11-25T07:08:10.074Z,6.04
2018-11-25T07:09:09.889Z,6.09
2018-11-25T07:10:08.903Z,6.04
2018-11-25T07:11:09.134Z,6.06
2018-11-25T07:12:11.078Z,6.10
2018-11-25T07:13:09.555Z,6.06
2018-11-25T07:14:10.662Z,6.13
2018-11-25T07:15:09.758Z,6.06
2018-11-25T07:16:11.581Z,6.18
2018-11-25T07:17:11.671Z,6.10
2018-11-25T07:18:12.071Z,6.14
2018-11-25T07:19:17.082Z,6.14
2018-11-25T07:20:13.579Z,6.09
2018-11-25T07:21:12.534Z,6.13
2018-11-25T07:22:14.573Z,6.25
2018-11-25T07:23:11.187Z,6.28
2018-11-25T07:24:40.110Z,6.38
2018-11-25T07:25:15.113Z,6.38
2018-11-25T07:26:13.778Z,6.41
2018-11-25T07:27:13.611Z,6.54
2018-11-25T07:28:18.542Z,6.50
2018-11-25T07:29:23.120Z,6.51
2018-11-25T07:30:12.454Z,6.47
2018-11-25T07:31:15.129Z,6.43
2018-11-25T07:32:18.081Z,6.48
2018-11-25T07:33:21.539Z,6.43
2018-11-25T07:34:21.606Z,6.38
2018-11-25T07:35:37.087Z,6.40
2018-11-25T07:36:14.031Z,6.50
2018-11-25T07:37:13.506Z,6.58
2018-11-25T07:38:15.649Z,6.50
2018-11-25T07:39:15.631Z,6.51
2018-11-25T07:40:15.644Z,6.54
2018-11-25T07:41:22.050Z,6.73
2018-11-25T07:42:15.272Z,6.63
2018-11-25T07:43:21.083Z,6.69
2018-11-25T07:44:27.577Z,6.65
2018-11-25T07:45:15.915Z,6.65
2018-11-25T07:46:18.534Z,6.79
2018-11-25T07:47:32.538Z,6.81
2018-11-25T07:48:16.070Z,6.68
2018-11-25T07:49:17.117Z,6.71
2018-11-25T07:50:19.113Z,6.80
2018-11-25T07:51:24.091Z,6.77
2018-11-25T07:52:22.586Z,6.79
2018-11-25T07:53:20.619Z,6.89
2018-11-25T07:54:19.072Z,6.94
2018-11-25T07:57:04.642Z,7.02
2018-11-25T07:58:26.839Z,7.08
2018-11-25T07:58:49.140Z,7.13
2018-11-25T07:59:49.332Z,7.09
2018-11-25T08:00:57.227Z,7.04
2018-11-25T08:01:50.064Z,7.17
2018-11-25T08:02:51.685Z,7.16
2018-11-25T08:03:52.608Z,7.20
2018-11-25T08:04:53.162Z,7.17
2018-11-25T08:05:54.394Z,7.19
2018-11-25T08:06:54.156Z,7.17
2018-11-25T08:08:12.771Z,7.19
2018-11-25T08:08:52.876Z,7.17
2018-11-25T08:09:55.627Z,7.16
2018-11-25T08:11:21.128Z,7.07
2018-11-25T08:12:14.155Z,7.17
2018-11-25T08:13:14.169Z,7.22
2018-11-25T08:13:51.734Z,7.17
2018-11-25T08:14:52.015Z,7.02
2018-11-25T08:15:53.681Z,7.05
2018-11-25T08:16:54.672Z,6.84
2018-11-25T08:18:13.551Z,6.71
2018-11-25T08:19:16.680Z,6.71
2018-11-25T08:19:55.633Z,6.77
2018-11-25T08:56:52.788Z,6.90
2018-11-25T08:58:01.407Z,6.76
2018-11-25T09:03:16.766Z,6.89
2018-11-25T09:04:17.119Z,6.73
2018-11-25T09:07:13.398Z,6.97
2018-11-25T09:07:42.334Z,6.84
2018-11-25T09:08:42.281Z,6.97
2018-11-25T09:09:56.259Z,7.02
2018-11-25T09:10:42.794Z,6.97
2018-11-25T09:11:42.741Z,7.07
2018-11-25T09:12:43.249Z,7.15
2018-11-25T09:13:45.293Z,7.01
2018-11-25T09:14:43.261Z,7.05
2018-11-25T09:15:43.769Z,7.12
2018-11-25T09:16:46.748Z,7.15
2018-11-25T09:17:42.171Z,7.13
2018-11-25T09:18:42.384Z,7.12
2018-11-25T09:19:43.603Z,7.12
2018-11-25T09:20:44.747Z,7.26
2018-11-25T09:21:42.976Z,7.15
2018-11-25T09:22:43.217Z,7.19
2018-11-25T09:23:44.339Z,7.23
2018-11-25T09:24:45.339Z,7.20
2018-11-25T09:25:45.245Z,7.19
2018-11-25T09:26:59.745Z,7.19
2018-11-25T09:27:44.966Z,7.34
2018-11-25T09:28:52.306Z,7.40
2018-11-25T09:29:51.263Z,7.37
2018-11-25T09:30:52.245Z,7.38
2018-11-25T09:31:46.284Z,7.47
2018-11-25T09:32:48.768Z,7.47
2018-11-25T09:33:48.786Z,7.50
2018-11-25T09:34:45.177Z,7.56
2018-11-25T09:35:46.769Z,7.50
2018-11-25T09:36:45.477Z,7.49
2018-11-25T09:37:45.675Z,7.47
2018-11-25T09:38:45.912Z,7.50
2018-11-25T09:39:47.752Z,7.58
2018-11-25T09:40:46.206Z,7.69
2018-11-25T09:42:09.257Z,7.60
2018-11-25T09:42:48.311Z,7.60
2018-11-25T09:43:46.774Z,7.67
2018-11-25T09:44:47.993Z,7.63
2018-11-25T09:45:48.765Z,7.79
2018-11-25T09:46:49.268Z,7.74
2018-11-25T09:47:47.521Z,7.74
2018-11-25T09:49:03.251Z,7.75
2018-11-25T09:49:55.754Z,7.84
2018-11-25T09:50:49.741Z,7.90
2018-11-25T09:51:49.759Z,8.03
2018-11-25T09:53:03.748Z,7.94
2018-11-25T09:53:50.247Z,7.97
2018-11-25T09:54:50.242Z,7.82
2018-11-25T09:56:04.242Z,7.87
2018-11-25T09:56:48.831Z,7.89
2018-11-25T09:57:52.745Z,7.87
2018-11-25T09:58:52.746Z,7.75
2018-11-25T09:59:51.271Z,7.69
2018-11-25T10:00:49.511Z,7.63
2018-11-25T10:01:49.692Z,7.79
2018-11-25T10:02:53.747Z,7.75
2018-11-25T10:03:50.069Z,7.67
2018-11-25T10:04:52.249Z,7.69
2018-11-25T10:05:51.501Z,7.79
2018-11-25T10:06:50.657Z,7.77
2018-11-25T10:07:59.294Z,7.71
2018-11-25T10:08:56.745Z,7.75
2018-11-25T10:10:13.743Z,7.75
2018-11-25T10:10:52.731Z,7.87
2018-11-25T10:11:53.251Z,7.77
2018-11-25T10:12:51.827Z,7.90
2018-11-25T10:13:52.078Z,7.89
2018-11-25T10:14:52.175Z,7.93
2018-11-25T10:15:52.395Z,7.85
2018-11-25T10:16:52.611Z,8.02
2018-11-25T10:17:59.922Z,7.97
2018-11-25T10:19:05.960Z,8.00
2018-11-25T10:20:04.745Z,8.17
2018-11-25T10:20:58.210Z,8.25
2018-11-25T10:57:34.325Z,9.13
2018-11-25T10:58:14.212Z,9.18
2018-11-25T10:59:13.467Z,9.16
2018-11-25T11:00:14.699Z,9.21
2018-11-25T11:01:13.898Z,9.25
2018-11-25T11:02:15.693Z,9.10
2018-11-25T11:03:15.721Z,9.21
2018-11-25T11:04:17.193Z,9.18
2018-11-25T11:05:14.525Z,9.09
2018-11-25T11:06:14.739Z,9.10
2018-11-25T11:07:14.953Z,9.21
2018-11-25T11:08:15.177Z,9.27
2018-11-25T11:09:15.388Z,9.18
2018-11-25T11:10:17.269Z,9.09
2018-11-25T11:11:16.791Z,9.28
2018-11-25T11:12:17.008Z,9.30
2018-11-25T11:13:19.189Z,9.28
2018-11-25T11:14:16.418Z,9.28
2018-11-25T11:15:18.185Z,9.34
2018-11-25T11:16:16.637Z,9.28
2018-11-25T11:17:16.859Z,9.39
2018-11-25T11:18:17.110Z,9.21
2018-11-25T11:19:19.227Z,9.06
2018-11-25T11:20:17.435Z,9.10
2018-11-25T11:21:17.634Z,9.02
2018-11-25T11:22:18.815Z,9.06
2018-11-25T11:23:19.032Z,8.88
2018-11-25T11:24:18.303Z,8.86
2018-11-25T11:25:22.236Z,8.93
2018-11-25T11:26:23.196Z,8.93
2018-11-25T11:27:20.225Z,8.96
2018-11-25T11:28:21.693Z,9.10
2018-11-25T11:29:19.070Z,9.06
2018-11-25T11:30:21.187Z,9.10
2018-11-25T11:31:21.838Z,8.96
2018-11-25T11:32:20.576Z,9.06
2018-11-25T11:33:23.194Z,9.10
2018-11-25T11:34:21.821Z,9.10
2018-11-25T11:35:20.050Z,9.32
2018-11-25T11:36:22.197Z,9.42
2018-11-25T11:37:20.414Z,9.46
2018-11-25T11:38:22.212Z,9.46
2018-11-25T11:39:20.664Z,9.40
2018-11-25T11:40:22.689Z,9.39
2018-11-25T11:41:21.023Z,9.30
2018-11-25T11:42:24.291Z,9.21
2018-11-25T11:43:23.189Z,9.16
2018-11-25T11:44:23.194Z,9.13
2018-11-25T11:45:21.804Z,8.97
2018-11-25T11:46:24.713Z,9.12
2018-11-25T11:47:23.057Z,9.18
2018-11-25T11:48:30.185Z,9.31
2018-11-25T11:49:22.401Z,9.39
2018-11-25T11:50:24.188Z,9.38
2018-11-25T11:51:25.851Z,9.28
2018-11-25T11:52:24.712Z,9.27
2018-11-25T11:53:26.691Z,9.06
2018-11-25T11:54:23.272Z,9.01
2018-11-25T11:55:23.468Z,8.90
2018-11-25T11:56:23.685Z,8.87
2018-11-25T11:57:23.888Z,8.94
2018-11-25T11:58:24.102Z,8.93
2018-11-25T11:59:26.239Z,8.93
2018-11-25T12:00:26.172Z,8.91
2018-11-25T12:01:26.687Z,8.90
2018-11-25T12:02:31.371Z,8.88
2018-11-25T12:03:26.839Z,8.87
2018-11-25T12:04:25.289Z,8.81
2018-11-25T12:05:25.489Z,8.90
2018-11-25T12:06:25.700Z,8.90
2018-11-25T12:07:25.911Z,8.78
2018-11-25T12:08:27.688Z,8.71
2018-11-25T12:09:26.276Z,8.76
2018-11-25T12:10:28.210Z,8.62
2018-11-25T12:11:28.197Z,8.69
2018-11-25T12:12:30.714Z,8.72
2018-11-25T12:13:26.932Z,8.68
2018-11-25T12:14:29.699Z,8.66
2018-11-25T12:15:30.714Z,8.66
2018-11-25T12:16:33.393Z,8.69
2018-11-25T12:17:29.203Z,8.65
2018-11-25T12:18:27.802Z,8.69
2018-11-25T12:19:29.708Z,8.63
2018-11-25T12:20:28.171Z,8.71
2018-11-25T12:21:28.369Z,8.63
2018-11-25T12:22:29.625Z,8.51
2018-11-25T12:23:30.719Z,8.60
2018-11-25T12:24:28.923Z,8.51
2018-11-25T12:25:29.132Z,8.57
2018-11-25T12:26:31.222Z,8.66
2018-11-25T12:27:31.199Z,8.68
2018-11-25T12:28:29.828Z,8.65
2018-11-25T12:29:29.988Z,8.62
2018-11-25T12:30:31.697Z,8.62
2018-11-25T12:31:30.394Z,8.62
2018-11-25T12:32:32.194Z,8.60
2018-11-25T12:33:30.814Z,8.58
2018-11-25T12:34:34.698Z,8.60
2018-11-25T12:35:33.712Z,8.71
2018-11-25T12:36:32.701Z,8.68
2018-11-25T12:37:36.199Z,8.60
2018-11-25T12:38:31.559Z,8.63
2018-11-25T12:39:33.222Z,8.76
2018-11-25T12:40:31.839Z,8.72
2018-11-25T12:41:32.034Z,8.68
2018-11-25T12:42:32.285Z,8.69
2018-11-25T12:43:34.207Z,8.58
2018-11-25T12:44:33.642Z,8.57
2018-11-25T12:45:34.688Z,8.51
2018-11-25T12:46:34.694Z,8.62
2018-11-25T12:47:34.692Z,8.60
2018-11-25T12:48:35.193Z,8.65
2018-11-25T12:49:33.435Z,8.60
2018-11-25T12:50:34.536Z,8.55
2018-11-25T12:51:36.738Z,8.51
2018-11-25T12:52:36.712Z,8.51
2018-11-25T12:53:35.740Z,8.57
2018-11-25T12:54:34.276Z,8.55
2018-11-25T12:55:35.497Z,8.55
2018-11-25T12:56:42.730Z,8.58
2018-11-25T12:57:34.906Z,8.50
2018-11-25T12:58:36.700Z,8.53
2018-11-25T12:59:35.301Z,8.54
2018-11-25T13:00:37.245Z,8.44
2018-11-25T13:01:38.144Z,8.51
2018-11-25T13:02:35.873Z,8.55
2018-11-25T13:03:37.693Z,8.54
2018-11-25T13:04:40.195Z,8.54
2018-11-25T13:05:36.405Z,8.62
2018-11-25T13:06:38.205Z,8.53
2018-11-25T13:07:38.743Z,8.55
2018-11-25T13:08:39.693Z,8.40
2018-11-25T13:09:38.706Z,8.40
2018-11-25T13:10:37.336Z,8.35
2018-11-25T13:11:39.199Z,8.39
2018-11-25T13:12:37.642Z,8.40
2018-11-25T13:13:37.868Z,8.25
2018-11-25T13:14:43.693Z,8.25
2018-11-25T13:15:43.793Z,8.33
2018-11-25T13:16:39.370Z,8.42
2018-11-25T13:17:38.614Z,8.40
2018-11-25T13:18:40.699Z,8.40
2018-11-25T13:19:40.690Z,8.47
2018-11-25T13:20:40.701Z,8.42
2018-11-25T13:21:39.276Z,8.42
2018-11-25T13:22:41.235Z,8.40
2018-11-25T13:23:43.253Z,8.37
2018-11-25T13:24:39.870Z,8.37
2018-11-25T13:25:40.070Z,8.36
2018-11-25T13:26:44.192Z,8.39
2018-11-25T13:27:42.207Z,8.36
2018-11-25T13:28:42.195Z,8.42
2018-11-25T13:29:40.765Z,8.40
2018-11-25T13:30:47.754Z,8.42
2018-11-25T13:31:42.698Z,8.44
2018-11-25T13:32:43.199Z,8.47
2018-11-25T13:33:41.408Z,8.32
2018-11-25T13:34:49.207Z,8.35
2018-11-25T13:35:43.707Z,8.39
2018-11-25T13:36:42.929Z,8.40
2018-11-25T13:37:43.743Z,8.44
2018-11-25T13:38:44.198Z,8.37
2018-11-25T13:39:49.197Z,8.39
2018-11-25T13:40:46.246Z,8.30
2018-11-25T13:41:44.191Z,8.30
2018-11-25T13:42:44.717Z,8.26
2018-11-25T13:43:49.166Z,8.28
2018-11-25T13:44:45.195Z,8.35
2018-11-25T13:45:43.395Z,8.33
2018-11-25T13:46:49.608Z,8.22
2018-11-25T13:47:43.848Z,8.32
2018-11-25T13:48:45.738Z,8.32
2018-11-25T13:49:47.705Z,8.22
2018-11-25T13:50:46.195Z,8.29
2018-11-25T13:51:44.509Z,8.32
2018-11-25T13:52:44.723Z,8.25
2018-11-25T13:53:46.697Z,8.18
2018-11-25T13:54:47.656Z,8.26
2018-11-25T13:55:45.403Z,8.25
2018-11-25T13:56:47.235Z,8.26
2018-11-25T13:57:47.734Z,8.28
2018-11-25T13:58:46.912Z,8.17
2018-11-25T13:59:49.705Z,8.04
2018-11-25T14:00:50.200Z,8.14
2018-11-25T14:01:48.208Z,8.26
2018-11-25T14:02:48.191Z,8.21
2018-11-25T14:03:46.641Z,8.17
2018-11-25T14:04:48.884Z,8.08
2018-11-25T14:05:53.164Z,8.10
2018-11-25T14:06:48.712Z,8.15
2018-11-25T14:07:48.331Z,8.04
2018-11-25T14:08:49.196Z,8.14
2018-11-25T14:09:51.193Z,8.20
2018-11-25T14:10:51.696Z,8.11
2018-11-25T14:11:47.933Z,8.26
2018-11-25T14:12:50.702Z,8.20
2018-11-25T14:13:48.153Z,8.11
2018-11-25T14:14:50.208Z,8.21
2018-11-25T14:15:50.203Z,8.25
2018-11-25T14:16:48.707Z,8.22
2018-11-25T14:17:48.802Z,8.26
2018-11-25T14:18:50.691Z,8.17
2018-11-25T14:19:50.720Z,8.17
2018-11-25T14:20:50.710Z,8.25
2018-11-25T14:21:49.289Z,8.25
2018-11-25T14:22:51.243Z,8.21
2018-11-25T14:23:57.194Z,8.17
2018-11-25T14:24:51.714Z,8.28
2018-11-25T14:25:49.937Z,8.21
2018-11-25T14:26:50.132Z,8.29
2018-11-25T14:27:52.196Z,8.26
2018-11-25T14:28:52.235Z,8.26
2018-11-25T14:29:52.692Z,8.39
2018-11-25T14:30:50.913Z,8.22
2018-11-25T14:31:52.131Z,8.18
2018-11-25T14:32:51.347Z,8.25
2018-11-25T14:33:51.551Z,8.25
2018-11-25T14:34:51.773Z,8.28
2018-11-25T14:35:52.040Z,8.30
2018-11-25T14:36:53.755Z,8.33
2018-11-25T14:37:59.266Z,8.33
2018-11-25T14:38:53.446Z,8.25
2018-11-25T14:39:52.726Z,8.29
2018-11-25T14:40:54.696Z,8.25
2018-11-25T14:41:54.704Z,8.33
2018-11-25T14:42:56.692Z,8.26
2018-11-25T14:43:55.207Z,8.28
2018-11-25T14:44:54.441Z,8.25
2018-11-25T14:45:54.543Z,8.26
2018-11-25T14:46:56.729Z,8.29
2018-11-25T14:47:53.947Z,8.21
2018-11-25T14:48:57.694Z,8.28
2018-11-25T14:49:54.291Z,8.21
2018-11-25T14:50:56.199Z,8.21
2018-11-25T14:51:56.225Z,8.22
2018-11-25T14:52:56.193Z,8.26
2018-11-25T14:53:58.729Z,8.29
2018-11-25T14:54:55.078Z,8.18
2018-11-25T14:55:55.284Z,8.20
2018-11-25T14:56:57.221Z,8.14
2018-11-25T14:57:55.701Z,8.08
2018-11-25T14:58:55.800Z,8.11
2018-11-25T14:59:56.009Z,8.17
2018-11-25T15:00:58.197Z,8.10
2018-11-25T15:02:04.369Z,8.17
2018-11-25T15:03:00.192Z,8.12
2018-11-25T15:03:56.662Z,8.17
2018-11-25T15:04:59.693Z,8.15
2018-11-25T15:06:00.710Z,8.18
2018-11-25T15:06:58.697Z,8.03
2018-11-25T15:07:58.271Z,8.07
2018-11-25T15:09:00.397Z,8.08
2018-11-25T15:09:59.933Z,8.15
2018-11-25T15:10:59.696Z,8.00
2018-11-25T15:11:57.911Z,8.02
2018-11-25T15:13:00.692Z,8.10
2018-11-25T15:13:59.280Z,8.02
2018-11-25T15:15:00.243Z,8.12
2018-11-25T15:16:14.202Z,8.14
2018-11-25T15:17:02.720Z,8.03
2018-11-25T15:17:59.069Z,8.15
2018-11-25T15:18:59.493Z,8.15
2018-11-25T15:19:59.738Z,8.10
2018-11-25T15:21:01.200Z,8.11
2018-11-25T15:21:59.942Z,8.08
2018-11-25T15:23:01.721Z,8.08
2018-11-25T15:24:08.213Z,8.12
2018-11-25T15:25:02.195Z,8.12
2018-11-25T15:26:02.211Z,7.99
2018-11-25T15:27:00.842Z,8.10
2018-11-25T15:28:00.930Z,8.07
2018-11-25T15:29:02.147Z,8.11
2018-11-25T15:30:04.194Z,8.14
2018-11-25T15:31:03.221Z,8.10
2018-11-25T15:32:01.699Z,8.00
2018-11-25T15:33:08.309Z,8.02
2018-11-25T15:34:03.704Z,8.03
2018-11-25T15:35:03.696Z,7.99
2018-11-25T15:36:02.294Z,7.96
2018-11-25T15:37:04.279Z,7.97
2018-11-25T15:38:03.393Z,7.97
2018-11-25T15:39:27.697Z,7.96
2018-11-25T15:40:06.705Z,7.99
2018-11-25T15:41:24.199Z,7.99
2018-11-25T15:42:05.206Z,8.04
2018-11-25T15:43:06.223Z,7.99
2018-11-25T15:44:03.756Z,8.03
2018-11-25T15:45:11.654Z,7.92
2018-11-25T15:46:03.997Z,7.96
2018-11-25T15:47:08.271Z,7.99
2018-11-25T15:48:08.199Z,7.92
2018-11-25T15:49:06.189Z,7.96
2018-11-25T15:50:04.648Z,8.02
2018-11-25T15:51:04.898Z,7.85
2018-11-25T15:52:08.736Z,7.89
2018-11-25T15:53:06.717Z,7.84
2018-11-25T15:54:06.837Z,7.93
2018-11-25T15:55:05.636Z,7.85
2018-11-25T15:56:05.868Z,8.00
2018-11-25T15:57:07.714Z,7.92
2018-11-25T15:58:11.721Z,7.89
2018-11-25T15:59:08.217Z,7.84
2018-11-25T16:00:08.196Z,7.93
2018-11-25T16:01:08.204Z,7.99
2018-11-25T16:02:10.717Z,7.97
2018-11-25T16:03:06.929Z,7.90
2018-11-25T16:04:07.653Z,7.90
2018-11-25T16:05:07.258Z,7.96
2018-11-25T16:06:15.242Z,7.87
2018-11-25T16:07:07.676Z,7.84
2018-11-25T16:08:09.716Z,7.82
2018-11-25T16:09:08.934Z,7.75
2018-11-25T16:10:08.153Z,7.72
2018-11-25T16:11:12.197Z,7.82
2018-11-25T16:12:09.546Z,7.77
2018-11-25T16:13:09.209Z,7.75
2018-11-25T16:14:08.801Z,7.78
2018-11-25T16:15:12.693Z,7.78
2018-11-25T16:16:09.173Z,7.72
2018-11-25T16:17:18.295Z,7.75
2018-11-25T16:18:09.481Z,7.77
2018-11-25T16:19:13.206Z,7.72
2018-11-25T16:20:12.660Z,7.72
2018-11-25T16:21:11.136Z,7.72
2018-11-25T16:22:10.364Z,7.78
2018-11-25T16:23:32.590Z,7.66
2018-11-25T16:24:18.699Z,7.75
2018-11-25T16:25:14.697Z,7.67
2018-11-25T16:26:14.698Z,7.60
2018-11-25T16:27:11.149Z,7.56
2018-11-25T16:28:12.376Z,7.60
2018-11-25T16:29:13.230Z,7.60
2018-11-25T16:30:11.709Z,7.56
2018-11-25T16:31:11.913Z,7.55
2018-11-25T16:32:17.706Z,7.62
2018-11-25T16:33:12.327Z,7.47
2018-11-25T16:34:19.233Z,7.52
2018-11-25T16:35:18.196Z,7.58
2018-11-25T16:36:14.399Z,7.59
2018-11-25T16:37:14.695Z,7.56
2018-11-25T16:38:14.705Z,7.59
2018-11-25T16:39:15.224Z,7.63
2018-11-25T16:40:15.220Z,7.53
2018-11-25T16:41:17.166Z,7.53
2018-11-25T16:42:13.901Z,7.53
2018-11-25T16:43:15.737Z,7.55
2018-11-25T16:44:17.198Z,7.44
2018-11-25T16:45:14.442Z,7.53
2018-11-25T16:46:37.257Z,7.50
2018-11-25T16:47:16.758Z,7.49
2018-11-25T16:48:18.741Z,7.52
2018-11-25T16:49:16.747Z,7.45
2018-11-25T16:50:24.511Z,7.59
2018-11-25T16:51:17.199Z,7.45
2018-11-25T16:52:15.810Z,7.50
2018-11-25T16:53:15.978Z,7.52
2018-11-25T16:54:16.178Z,7.40
2018-11-25T16:55:19.199Z,7.53
2018-11-25T16:56:18.205Z,7.52
2018-11-25T16:57:18.205Z,7.47
2018-11-25T16:58:18.702Z,7.38
2018-11-25T16:59:18.724Z,7.53
2018-11-25T17:00:17.118Z,7.45
2018-11-25T17:01:19.225Z,7.45
2018-11-25T17:02:21.196Z,7.31
2018-11-25T17:03:21.235Z,7.38
2018-11-25T17:04:19.703Z,7.44
2018-11-25T17:05:18.038Z,7.40
2018-11-25T17:06:18.254Z,7.38
2018-11-25T17:07:20.154Z,7.44
2018-11-25T17:08:18.645Z,7.49
2018-11-25T17:09:20.698Z,7.47
2018-11-25T17:10:21.708Z,7.47
2018-11-25T17:11:21.711Z,7.38
2018-11-25T17:12:19.294Z,7.40
2018-11-25T17:13:31.213Z,7.49
2018-11-25T17:14:19.677Z,7.41
2018-11-25T17:15:21.738Z,7.47
2018-11-25T17:16:20.087Z,7.41
2018-11-25T17:17:20.298Z,7.41
2018-11-25T17:18:21.158Z,7.37
2018-11-25T17:19:20.639Z,7.40
2018-11-25T17:20:43.719Z,7.37
2018-11-25T17:21:21.035Z,7.40
2018-11-25T17:22:21.236Z,7.35
2018-11-25T17:23:21.439Z,7.38
2018-11-25T17:24:23.200Z,7.35
2018-11-25T17:25:22.225Z,7.42
2018-11-25T17:26:21.953Z,7.34
2018-11-25T17:27:23.703Z,7.31
2018-11-25T17:28:23.720Z,7.32
2018-11-25T17:29:25.652Z,7.31
2018-11-25T17:30:25.190Z,7.31
2018-11-25T17:31:22.659Z,7.24
2018-11-25T17:32:23.917Z,7.35
2018-11-25T17:33:24.744Z,7.38
2018-11-25T17:34:25.214Z,7.35
2018-11-25T17:35:23.425Z,7.40
2018-11-25T17:36:24.692Z,7.35
2018-11-25T17:37:23.795Z,7.29
2018-11-25T17:38:25.716Z,7.22
2018-11-25T17:39:25.702Z,7.29
2018-11-25T17:40:24.275Z,7.20
2018-11-25T17:41:26.198Z,7.20
2018-11-25T17:42:32.207Z,7.26
2018-11-25T17:43:26.705Z,7.24
2018-11-25T17:44:26.720Z,7.22
2018-11-25T17:45:40.698Z,7.23
2018-11-25T17:46:33.233Z,7.22
2018-11-25T17:47:27.198Z,7.27
2018-11-25T17:48:27.697Z,7.20
2018-11-25T17:49:28.524Z,7.35
2018-11-25T17:50:26.116Z,7.23
2018-11-25T17:51:29.209Z,7.22
2018-11-25T17:52:30.457Z,7.26
2018-11-25T17:53:27.940Z,7.27
2018-11-25T17:54:27.785Z,7.23
2018-11-25T17:55:26.877Z,7.22
2018-11-25T17:56:34.701Z,7.37
2018-11-25T17:57:50.246Z,7.35
2018-11-25T17:58:29.230Z,7.40
2018-11-25T17:59:29.222Z,7.34
2018-11-25T18:00:27.807Z,7.29
2018-11-25T18:01:29.701Z,7.29
2018-11-25T18:02:31.703Z,7.32
2018-11-25T18:03:30.209Z,7.23
2018-11-25T18:04:30.251Z,7.24